sensor_id;sensor_type;location;lat;lon;timestamp;temperature;humidity
2825;DHT22;1420;51.324;12.344;2022-07-26T00:00:26;20.50;99.90
2825;DHT22;1420;51.324;12.344;2022-07-26T00:02:54;20.50;99.90
2825;DHT22;1420;51.324;12.344;2022-07-26T00:05:21;20.50;99.90
2825;DHT22;1420;51.324;12.344;2022-07-26T00:07:48;20.60;99.90
2825;DHT22;1420;51.324;12.344;2022-07-26T00:10:15;20.80;99.90
2825;DHT22;1420;51.324;12.344;2022-07-26T00:12:42;20.70;99.90
2825;DHT22;1420;51.324;12.344;2022-07-26T00:15:10;20.60;99.90
2825;DHT22;1420;51.324;12.344;2022-07-26T00:17:38;20.70;99.90
2825;DHT22;1420;51.324;12.344;2022-07-26T00:20:07;20.50;99.90
2825;DHT22;1420;51.324;12.344;2022-07-26T00:22:34;20.40;99.90
2825;DHT22;1420;51.324;12.344;2022-07-26T00:25:02;20.50;99.90
2825;DHT22;1420;51.324;12.344;2022-07-26T00:27:29;20.50;99.90
2825;DHT22;1420;51.324;12.344;2022-07-26T00:29:57;20.50;99.90
2825;DHT22;1420;51.324;12.344;2022-07-26T00:32:25;20.60;99.90
2825;DHT22;1420;51.324;12.344;2022-07-26T00:34:53;20.60;99.90
2825;DHT22;1420;51.324;12.344;2022-07-26T00:37:20;20.50;99.90
2825;DHT22;1420;51.324;12.344;2022-07-26T00:39:47;20.60;99.90
2825;DHT22;1420;51.324;12.344;2022-07-26T00:42:15;20.60;99.90
2825;DHT22;1420;51.324;12.344;2022-07-26T00:44:43;20.60;99.90
2825;DHT22;1420;51.324;12.344;2022-07-26T00:47:09;20.60;99.90
2825;DHT22;1420;51.324;12.344;2022-07-26T00:49:36;20.50;99.90
2825;DHT22;1420;51.324;12.344;2022-07-26T00:52:04;20.60;99.90
2825;DHT22;1420;51.324;12.344;2022-07-26T00:54:31;20.90;99.90
2825;DHT22;1420;51.324;12.344;2022-07-26T00:56:58;20.70;99.90
2825;DHT22;1420;51.324;12.344;2022-07-26T00:59:25;20.70;99.90
2825;DHT22;1420;51.324;12.344;2022-07-26T01:01:53;20.80;99.90
2825;DHT22;1420;51.324;12.344;2022-07-26T01:04:21;20.80;99.90
2825;DHT22;1420;51.324;12.344;2022-07-26T01:06:49;20.60;99.90
2825;DHT22;1420;51.324;12.344;2022-07-26T01:09:17;20.60;99.90
2825;DHT22;1420;51.324;12.344;2022-07-26T01:11:45;20.50;99.90
2825;DHT22;1420;51.324;12.344;2022-07-26T01:14:12;20.60;99.90
2825;DHT22;1420;51.324;12.344;2022-07-26T01:16:39;20.70;99.90
2825;DHT22;1420;51.324;12.344;2022-07-26T01:19:06;20.60;99.90
2825;DHT22;1420;51.324;12.344;2022-07-26T01:21:33;20.90;99.90
2825;DHT22;1420;51.324;12.344;2022-07-26T01:24:01;20.70;99.90
2825;DHT22;1420;51.324;12.344;2022-07-26T01:26:28;20.90;99.90
2825;DHT22;1420;51.324;12.344;2022-07-26T01:28:55;21.00;99.90
2825;DHT22;1420;51.324;12.344;2022-07-26T01:31:22;21.00;99.90
2825;DHT22;1420;51.324;12.344;2022-07-26T01:33:50;21.00;99.90
2825;DHT22;1420;51.324;12.344;2022-07-26T01:36:17;21.00;99.90
2825;DHT22;1420;51.324;12.344;2022-07-26T01:38:44;21.10;99.90
2825;DHT22;1420;51.324;12.344;2022-07-26T01:41:11;21.00;99.90
2825;DHT22;1420;51.324;12.344;2022-07-26T01:43:38;21.20;99.90
2825;DHT22;1420;51.324;12.344;2022-07-26T01:46:06;21.20;99.90
2825;DHT22;1420;51.324;12.344;2022-07-26T01:48:33;20.90;99.90
2825;DHT22;1420;51.324;12.344;2022-07-26T01:51:01;21.00;99.90
2825;DHT22;1420;51.324;12.344;2022-07-26T01:53:29;20.90;99.90
2825;DHT22;1420;51.324;12.344;2022-07-26T01:55:57;21.20;99.90
2825;DHT22;1420;51.324;12.344;2022-07-26T01:58:25;21.00;99.90
2825;DHT22;1420;51.324;12.344;2022-07-26T02:00:52;21.00;99.90
2825;DHT22;1420;51.324;12.344;2022-07-26T02:03:20;20.90;99.90
2825;DHT22;1420;51.324;12.344;2022-07-26T02:05:47;20.80;99.90
2825;DHT22;1420;51.324;12.344;2022-07-26T02:08:14;20.70;99.90
2825;DHT22;1420;51.324;12.344;2022-07-26T02:10:41;20.60;99.90
2825;DHT22;1420;51.324;12.344;2022-07-26T02:13:14;20.70;99.90
2825;DHT22;1420;51.324;12.344;2022-07-26T02:15:41;20.60;99.90
2825;DHT22;1420;51.324;12.344;2022-07-26T02:18:08;20.50;99.90
2825;DHT22;1420;51.324;12.344;2022-07-26T02:20:36;20.40;99.90
2825;DHT22;1420;51.324;12.344;2022-07-26T02:23:03;20.30;99.90
2825;DHT22;1420;51.324;12.344;2022-07-26T02:25:30;20.30;99.90
2825;DHT22;1420;51.324;12.344;2022-07-26T02:27:58;20.20;99.90
2825;DHT22;1420;51.324;12.344;2022-07-26T02:30:25;20.20;99.90
2825;DHT22;1420;51.324;12.344;2022-07-26T02:32:53;20.20;99.90
2825;DHT22;1420;51.324;12.344;2022-07-26T02:35:20;20.40;99.90
2825;DHT22;1420;51.324;12.344;2022-07-26T02:37:47;20.50;99.90
2825;DHT22;1420;51.324;12.344;2022-07-26T02:40:15;20.60;99.90
2825;DHT22;1420;51.324;12.344;2022-07-26T02:42:43;20.60;99.90
2825;DHT22;1420;51.324;12.344;2022-07-26T02:45:11;20.50;99.90
2825;DHT22;1420;51.324;12.344;2022-07-26T02:47:47;20.60;99.90
2825;DHT22;1420;51.324;12.344;2022-07-26T02:50:16;20.50;99.90
2825;DHT22;1420;51.324;12.344;2022-07-26T02:52:43;20.50;99.90
2825;DHT22;1420;51.324;12.344;2022-07-26T02:55:10;20.70;99.90
2825;DHT22;1420;51.324;12.344;2022-07-26T02:57:37;20.80;99.90
2825;DHT22;1420;51.324;12.344;2022-07-26T03:00:06;20.80;99.90
2825;DHT22;1420;51.324;12.344;2022-07-26T03:02:33;20.70;99.90
2825;DHT22;1420;51.324;12.344;2022-07-26T03:05:01;20.30;99.90
2825;DHT22;1420;51.324;12.344;2022-07-26T03:07:29;20.10;99.90
2825;DHT22;1420;51.324;12.344;2022-07-26T03:09:57;20.20;99.90
2825;DHT22;1420;51.324;12.344;2022-07-26T03:12:25;20.10;99.90
2825;DHT22;1420;51.324;12.344;2022-07-26T03:14:53;20.20;99.90
2825;DHT22;1420;51.324;12.344;2022-07-26T03:17:21;20.10;99.90
2825;DHT22;1420;51.324;12.344;2022-07-26T03:19:48;20.20;99.90
2825;DHT22;1420;51.324;12.344;2022-07-26T03:22:17;20.20;99.90
2825;DHT22;1420;51.324;12.344;2022-07-26T03:24:45;20.10;99.90
2825;DHT22;1420;51.324;12.344;2022-07-26T03:27:12;20.00;99.90
2825;DHT22;1420;51.324;12.344;2022-07-26T03:29:40;20.10;99.90
2825;DHT22;1420;51.324;12.344;2022-07-26T03:32:08;19.90;99.90
2825;DHT22;1420;51.324;12.344;2022-07-26T03:34:36;20.00;99.90
2825;DHT22;1420;51.324;12.344;2022-07-26T03:37:04;20.00;99.90
2825;DHT22;1420;51.324;12.344;2022-07-26T03:39:31;19.90;99.90
2825;DHT22;1420;51.324;12.344;2022-07-26T03:41:58;20.00;99.90
2825;DHT22;1420;51.324;12.344;2022-07-26T03:44:25;20.00;99.90
2825;DHT22;1420;51.324;12.344;2022-07-26T03:46:53;20.00;99.90
2825;DHT22;1420;51.324;12.344;2022-07-26T03:49:21;20.00;99.90
2825;DHT22;1420;51.324;12.344;2022-07-26T03:51:49;20.10;99.90
2825;DHT22;1420;51.324;12.344;2022-07-26T03:54:17;20.20;99.90
2825;DHT22;1420;51.324;12.344;2022-07-26T03:56:45;20.10;99.90
2825;DHT22;1420;51.324;12.344;2022-07-26T03:59:13;19.90;99.90
2825;DHT22;1420;51.324;12.344;2022-07-26T04:01:42;19.90;99.90
2825;DHT22;1420;51.324;12.344;2022-07-26T04:04:10;20.00;99.90
2825;DHT22;1420;51.324;12.344;2022-07-26T04:06:37;20.00;99.90
2825;DHT22;1420;51.324;12.344;2022-07-26T04:09:05;20.00;99.90
2825;DHT22;1420;51.324;12.344;2022-07-26T04:11:33;19.90;99.90
2825;DHT22;1420;51.324;12.344;2022-07-26T04:14:00;19.80;99.90
2825;DHT22;1420;51.324;12.344;2022-07-26T04:16:27;20.10;99.90
2825;DHT22;1420;51.324;12.344;2022-07-26T04:18:55;20.10;99.90
2825;DHT22;1420;51.324;12.344;2022-07-26T04:21:22;20.10;99.90
2825;DHT22;1420;51.324;12.344;2022-07-26T04:23:49;20.10;99.90
2825;DHT22;1420;51.324;12.344;2022-07-26T04:26:16;20.20;99.90
2825;DHT22;1420;51.324;12.344;2022-07-26T04:28:43;20.10;99.90
2825;DHT22;1420;51.324;12.344;2022-07-26T04:31:11;20.30;99.90
2825;DHT22;1420;51.324;12.344;2022-07-26T04:33:38;20.30;99.90
2825;DHT22;1420;51.324;12.344;2022-07-26T04:36:06;20.30;99.90
2825;DHT22;1420;51.324;12.344;2022-07-26T04:38:33;20.30;99.90
2825;DHT22;1420;51.324;12.344;2022-07-26T04:41:00;20.30;99.90
2825;DHT22;1420;51.324;12.344;2022-07-26T04:43:27;20.30;99.90
2825;DHT22;1420;51.324;12.344;2022-07-26T04:45:55;20.10;99.90
2825;DHT22;1420;51.324;12.344;2022-07-26T04:48:23;20.00;99.90
2825;DHT22;1420;51.324;12.344;2022-07-26T04:50:50;20.00;99.90
2825;DHT22;1420;51.324;12.344;2022-07-26T04:53:17;20.10;99.90
2825;DHT22;1420;51.324;12.344;2022-07-26T04:55:44;20.10;99.90
2825;DHT22;1420;51.324;12.344;2022-07-26T04:58:11;20.10;99.90
2825;DHT22;1420;51.324;12.344;2022-07-26T05:00:38;20.10;99.90
2825;DHT22;1420;51.324;12.344;2022-07-26T05:03:06;20.10;99.90
2825;DHT22;1420;51.324;12.344;2022-07-26T05:05:33;20.00;99.90
2825;DHT22;1420;51.324;12.344;2022-07-26T05:08:01;20.10;99.90
2825;DHT22;1420;51.324;12.344;2022-07-26T05:10:30;20.20;99.90
2825;DHT22;1420;51.324;12.344;2022-07-26T05:12:54;20.10;99.90
2825;DHT22;1420;51.324;12.344;2022-07-26T05:15:22;20.20;99.90
2825;DHT22;1420;51.324;12.344;2022-07-26T05:17:49;20.10;99.90
2825;DHT22;1420;51.324;12.344;2022-07-26T05:20:16;20.10;99.90
2825;DHT22;1420;51.324;12.344;2022-07-26T05:22:43;20.30;99.90
2825;DHT22;1420;51.324;12.344;2022-07-26T05:25:10;20.30;99.90
2825;DHT22;1420;51.324;12.344;2022-07-26T05:27:38;20.90;99.90
2825;DHT22;1420;51.324;12.344;2022-07-26T05:30:05;21.00;99.90
2825;DHT22;1420;51.324;12.344;2022-07-26T05:32:33;21.10;99.90
2825;DHT22;1420;51.324;12.344;2022-07-26T05:35:00;21.00;99.90
2825;DHT22;1420;51.324;12.344;2022-07-26T05:37:28;21.20;99.90
2825;DHT22;1420;51.324;12.344;2022-07-26T05:39:55;21.40;99.90
2825;DHT22;1420;51.324;12.344;2022-07-26T05:42:22;21.70;99.90
2825;DHT22;1420;51.324;12.344;2022-07-26T05:44:49;21.60;99.90
2825;DHT22;1420;51.324;12.344;2022-07-26T05:47:16;21.80;99.90
2825;DHT22;1420;51.324;12.344;2022-07-26T05:49:44;21.90;99.90
2825;DHT22;1420;51.324;12.344;2022-07-26T05:52:11;22.00;99.90
2825;DHT22;1420;51.324;12.344;2022-07-26T05:54:38;22.00;99.90
2825;DHT22;1420;51.324;12.344;2022-07-26T05:57:05;22.50;99.90
2825;DHT22;1420;51.324;12.344;2022-07-26T05:59:32;22.70;99.90
2825;DHT22;1420;51.324;12.344;2022-07-26T06:02:00;22.50;99.90
2825;DHT22;1420;51.324;12.344;2022-07-26T06:04:27;22.50;99.90
2825;DHT22;1420;51.324;12.344;2022-07-26T06:06:54;22.40;99.90
2825;DHT22;1420;51.324;12.344;2022-07-26T06:09:22;22.20;99.90
2825;DHT22;1420;51.324;12.344;2022-07-26T06:11:50;22.10;99.90
2825;DHT22;1420;51.324;12.344;2022-07-26T06:14:18;22.20;99.90
2825;DHT22;1420;51.324;12.344;2022-07-26T06:16:46;22.10;99.90
2825;DHT22;1420;51.324;12.344;2022-07-26T06:19:13;22.10;99.90
2825;DHT22;1420;51.324;12.344;2022-07-26T06:21:40;21.90;99.90
2825;DHT22;1420;51.324;12.344;2022-07-26T06:24:08;21.80;99.90
2825;DHT22;1420;51.324;12.344;2022-07-26T06:26:36;21.90;99.90
2825;DHT22;1420;51.324;12.344;2022-07-26T06:29:04;22.20;99.90
2825;DHT22;1420;51.324;12.344;2022-07-26T06:31:32;22.10;99.90
2825;DHT22;1420;51.324;12.344;2022-07-26T06:34:01;22.10;99.90
2825;DHT22;1420;51.324;12.344;2022-07-26T06:36:28;22.20;99.90
2825;DHT22;1420;51.324;12.344;2022-07-26T06:38:55;22.10;99.90
2825;DHT22;1420;51.324;12.344;2022-07-26T06:41:22;22.10;99.90
2825;DHT22;1420;51.324;12.344;2022-07-26T06:43:49;22.00;99.90
2825;DHT22;1420;51.324;12.344;2022-07-26T06:46:17;21.70;99.90
2825;DHT22;1420;51.324;12.344;2022-07-26T06:48:45;21.90;99.90
2825;DHT22;1420;51.324;12.344;2022-07-26T06:51:12;22.20;99.90
2825;DHT22;1420;51.324;12.344;2022-07-26T06:53:39;22.10;99.90
2825;DHT22;1420;51.324;12.344;2022-07-26T06:56:06;22.10;99.90
2825;DHT22;1420;51.324;12.344;2022-07-26T06:58:34;22.40;99.90
2825;DHT22;1420;51.324;12.344;2022-07-26T07:01:02;23.60;99.90
2825;DHT22;1420;51.324;12.344;2022-07-26T07:03:29;23.90;99.90
2825;DHT22;1420;51.324;12.344;2022-07-26T07:05:57;23.90;99.90
2825;DHT22;1420;51.324;12.344;2022-07-26T07:08:25;24.30;99.90
2825;DHT22;1420;51.324;12.344;2022-07-26T07:10:53;24.40;99.90
2825;DHT22;1420;51.324;12.344;2022-07-26T07:13:22;24.50;99.90
2825;DHT22;1420;51.324;12.344;2022-07-26T07:15:49;24.70;99.90
2825;DHT22;1420;51.324;12.344;2022-07-26T07:18:17;24.50;99.90
2825;DHT22;1420;51.324;12.344;2022-07-26T07:20:45;24.80;99.90
2825;DHT22;1420;51.324;12.344;2022-07-26T07:23:12;24.80;99.90
2825;DHT22;1420;51.324;12.344;2022-07-26T07:25:40;24.50;99.90
2825;DHT22;1420;51.324;12.344;2022-07-26T07:28:08;24.70;99.90
2825;DHT22;1420;51.324;12.344;2022-07-26T07:30:35;24.60;99.90
2825;DHT22;1420;51.324;12.344;2022-07-26T07:33:02;24.80;99.90
2825;DHT22;1420;51.324;12.344;2022-07-26T07:35:30;24.60;99.90
2825;DHT22;1420;51.324;12.344;2022-07-26T07:37:58;24.70;99.90
2825;DHT22;1420;51.324;12.344;2022-07-26T07:40:25;24.70;99.90
2825;DHT22;1420;51.324;12.344;2022-07-26T07:42:52;24.90;99.90
2825;DHT22;1420;51.324;12.344;2022-07-26T07:45:20;24.50;99.90
2825;DHT22;1420;51.324;12.344;2022-07-26T07:47:47;24.90;99.90
2825;DHT22;1420;51.324;12.344;2022-07-26T07:50:14;25.10;99.90
2825;DHT22;1420;51.324;12.344;2022-07-26T07:52:41;25.20;99.90
2825;DHT22;1420;51.324;12.344;2022-07-26T07:55:09;26.00;99.90
2825;DHT22;1420;51.324;12.344;2022-07-26T07:57:36;26.60;99.90
2825;DHT22;1420;51.324;12.344;2022-07-26T08:00:03;26.30;99.90
2825;DHT22;1420;51.324;12.344;2022-07-26T08:02:30;26.40;99.90
2825;DHT22;1420;51.324;12.344;2022-07-26T08:04:58;26.40;99.90
2825;DHT22;1420;51.324;12.344;2022-07-26T08:07:25;26.40;99.90
2825;DHT22;1420;51.324;12.344;2022-07-26T08:09:52;26.90;99.90
2825;DHT22;1420;51.324;12.344;2022-07-26T08:12:19;26.50;99.90
2825;DHT22;1420;51.324;12.344;2022-07-26T08:14:46;26.60;99.90
2825;DHT22;1420;51.324;12.344;2022-07-26T08:17:14;27.00;99.90
2825;DHT22;1420;51.324;12.344;2022-07-26T08:19:41;27.90;99.90
2825;DHT22;1420;51.324;12.344;2022-07-26T08:22:08;28.20;99.90
2825;DHT22;1420;51.324;12.344;2022-07-26T08:24:35;28.00;99.90
2825;DHT22;1420;51.324;12.344;2022-07-26T08:27:02;28.30;99.90
2825;DHT22;1420;51.324;12.344;2022-07-26T08:29:30;27.90;99.90
2825;DHT22;1420;51.324;12.344;2022-07-26T08:31:59;26.10;99.90
2825;DHT22;1420;51.324;12.344;2022-07-26T08:34:26;26.20;99.90
2825;DHT22;1420;51.324;12.344;2022-07-26T08:36:54;26.90;99.90
2825;DHT22;1420;51.324;12.344;2022-07-26T08:39:22;27.10;99.90
2825;DHT22;1420;51.324;12.344;2022-07-26T08:41:50;26.80;99.90
2825;DHT22;1420;51.324;12.344;2022-07-26T08:44:17;26.80;99.90
2825;DHT22;1420;51.324;12.344;2022-07-26T08:46:44;26.80;99.90
2825;DHT22;1420;51.324;12.344;2022-07-26T08:49:11;26.00;99.90
2825;DHT22;1420;51.324;12.344;2022-07-26T08:51:40;25.10;99.90
2825;DHT22;1420;51.324;12.344;2022-07-26T08:54:06;25.50;99.90
2825;DHT22;1420;51.324;12.344;2022-07-26T08:56:34;25.60;99.90
2825;DHT22;1420;51.324;12.344;2022-07-26T08:59:04;26.40;99.90
2825;DHT22;1420;51.324;12.344;2022-07-26T09:01:31;26.90;99.90
2825;DHT22;1420;51.324;12.344;2022-07-26T09:04:16;27.30;99.90
2825;DHT22;1420;51.324;12.344;2022-07-26T09:06:27;26.70;99.90
2825;DHT22;1420;51.324;12.344;2022-07-26T09:08:54;26.70;99.90
2825;DHT22;1420;51.324;12.344;2022-07-26T09:11:31;26.90;99.90
2825;DHT22;1420;51.324;12.344;2022-07-26T09:14:02;26.60;99.90
2825;DHT22;1420;51.324;12.344;2022-07-26T09:16:28;27.10;99.90
2825;DHT22;1420;51.324;12.344;2022-07-26T09:19:12;25.80;99.90
2825;DHT22;1420;51.324;12.344;2022-07-26T09:21:30;26.10;99.90
2825;DHT22;1420;51.324;12.344;2022-07-26T09:23:56;26.80;99.90
2825;DHT22;1420;51.324;12.344;2022-07-26T09:26:25;26.50;99.90
2825;DHT22;1420;51.324;12.344;2022-07-26T09:29:01;26.90;99.90
2825;DHT22;1420;51.324;12.344;2022-07-26T09:31:27;26.90;99.90
2825;DHT22;1420;51.324;12.344;2022-07-26T09:33:54;27.10;99.90
2825;DHT22;1420;51.324;12.344;2022-07-26T09:36:21;27.70;99.90
2825;DHT22;1420;51.324;12.344;2022-07-26T09:38:50;26.70;99.90
2825;DHT22;1420;51.324;12.344;2022-07-26T09:41:20;25.80;99.90
2825;DHT22;1420;51.324;12.344;2022-07-26T09:43:47;26.10;99.90
2825;DHT22;1420;51.324;12.344;2022-07-26T09:46:14;27.10;99.90
2825;DHT22;1420;51.324;12.344;2022-07-26T09:48:41;27.80;99.90
2825;DHT22;1420;51.324;12.344;2022-07-26T09:51:08;28.70;99.90
2825;DHT22;1420;51.324;12.344;2022-07-26T09:53:43;28.50;99.90
2825;DHT22;1420;51.324;12.344;2022-07-26T09:56:09;27.90;99.90
2825;DHT22;1420;51.324;12.344;2022-07-26T09:58:37;27.40;99.90
2825;DHT22;1420;51.324;12.344;2022-07-26T10:01:05;27.60;99.90
2825;DHT22;1420;51.324;12.344;2022-07-26T10:03:33;27.00;99.90
2825;DHT22;1420;51.324;12.344;2022-07-26T10:06:01;27.20;99.90
2825;DHT22;1420;51.324;12.344;2022-07-26T10:08:29;28.00;99.90
2825;DHT22;1420;51.324;12.344;2022-07-26T10:11:02;27.20;99.90
2825;DHT22;1420;51.324;12.344;2022-07-26T10:13:28;27.20;99.90
2825;DHT22;1420;51.324;12.344;2022-07-26T10:15:55;27.00;99.90
2825;DHT22;1420;51.324;12.344;2022-07-26T10:23:42;27.20;99.90
2825;DHT22;1420;51.324;12.344;2022-07-26T10:26:11;27.00;99.90
2825;DHT22;1420;51.324;12.344;2022-07-26T10:28:37;27.00;99.90
2825;DHT22;1420;51.324;12.344;2022-07-26T10:33:43;27.20;99.90
2825;DHT22;1420;51.324;12.344;2022-07-26T10:36:24;26.60;99.90
2825;DHT22;1420;51.324;12.344;2022-07-26T10:39:07;26.00;99.90
2825;DHT22;1420;51.324;12.344;2022-07-26T10:41:44;26.10;99.90
2825;DHT22;1420;51.324;12.344;2022-07-26T10:44:12;26.10;99.90
2825;DHT22;1420;51.324;12.344;2022-07-26T10:49:18;26.30;99.90
2825;DHT22;1420;51.324;12.344;2022-07-26T10:51:45;25.80;99.90
2825;DHT22;1420;51.324;12.344;2022-07-26T10:54:13;26.50;99.90
2825;DHT22;1420;51.324;12.344;2022-07-26T10:56:40;26.70;99.90
2825;DHT22;1420;51.324;12.344;2022-07-26T10:59:07;26.60;99.90
2825;DHT22;1420;51.324;12.344;2022-07-26T11:01:36;25.90;99.90
2825;DHT22;1420;51.324;12.344;2022-07-26T11:04:02;26.10;99.90
2825;DHT22;1420;51.324;12.344;2022-07-26T11:06:30;25.90;99.90
2825;DHT22;1420;51.324;12.344;2022-07-26T11:08:57;26.00;99.90
2825;DHT22;1420;51.324;12.344;2022-07-26T11:11:27;25.70;99.90
2825;DHT22;1420;51.324;12.344;2022-07-26T11:14:02;25.60;99.90
2825;DHT22;1420;51.324;12.344;2022-07-26T11:16:21;25.30;99.90
2825;DHT22;1420;51.324;12.344;2022-07-26T11:18:48;25.40;99.90
2825;DHT22;1420;51.324;12.344;2022-07-26T11:21:16;25.70;99.90
2825;DHT22;1420;51.324;12.344;2022-07-26T11:23:44;25.80;99.90
2825;DHT22;1420;51.324;12.344;2022-07-26T11:26:11;26.00;99.90
2825;DHT22;1420;51.324;12.344;2022-07-26T11:28:43;26.00;99.90
2825;DHT22;1420;51.324;12.344;2022-07-26T11:31:09;25.90;99.90
2825;DHT22;1420;51.324;12.344;2022-07-26T11:33:38;26.50;99.90
2825;DHT22;1420;51.324;12.344;2022-07-26T11:36:05;27.30;99.90
2825;DHT22;1420;51.324;12.344;2022-07-26T11:38:42;27.30;99.90
2825;DHT22;1420;51.324;12.344;2022-07-26T11:41:09;27.80;99.90
2825;DHT22;1420;51.324;12.344;2022-07-26T11:43:37;27.90;99.90
2825;DHT22;1420;51.324;12.344;2022-07-26T11:46:05;28.90;99.90
2825;DHT22;1420;51.324;12.344;2022-07-26T11:48:32;28.80;99.90
2825;DHT22;1420;51.324;12.344;2022-07-26T11:51:08;28.10;99.90
2825;DHT22;1420;51.324;12.344;2022-07-26T11:53:35;28.10;99.90
2825;DHT22;1420;51.324;12.344;2022-07-26T11:56:10;27.20;99.90
2825;DHT22;1420;51.324;12.344;2022-07-26T11:58:40;26.50;99.90
2825;DHT22;1420;51.324;12.344;2022-07-26T12:01:07;26.20;99.90
2825;DHT22;1420;51.324;12.344;2022-07-26T12:03:35;26.40;99.90
2825;DHT22;1420;51.324;12.344;2022-07-26T12:06:04;26.20;99.90
2825;DHT22;1420;51.324;12.344;2022-07-26T12:08:38;26.10;99.90
2825;DHT22;1420;51.324;12.344;2022-07-26T12:11:05;25.90;99.90
2825;DHT22;1420;51.324;12.344;2022-07-26T12:13:32;25.80;99.90
2825;DHT22;1420;51.324;12.344;2022-07-26T12:15:59;26.00;99.90
2825;DHT22;1420;51.324;12.344;2022-07-26T12:18:28;26.00;99.90
2825;DHT22;1420;51.324;12.344;2022-07-26T12:21:05;25.80;99.90
2825;DHT22;1420;51.324;12.344;2022-07-26T12:23:46;25.50;99.90
2825;DHT22;1420;51.324;12.344;2022-07-26T12:26:20;25.40;99.90
2825;DHT22;1420;51.324;12.344;2022-07-26T12:28:47;25.20;99.90
2825;DHT22;1420;51.324;12.344;2022-07-26T12:31:22;25.10;99.90
2825;DHT22;1420;51.324;12.344;2022-07-26T12:33:49;24.90;99.90
2825;DHT22;1420;51.324;12.344;2022-07-26T12:36:19;24.60;99.90
2825;DHT22;1420;51.324;12.344;2022-07-26T12:38:45;24.50;99.90
2825;DHT22;1420;51.324;12.344;2022-07-26T12:41:45;24.70;99.90
2825;DHT22;1420;51.324;12.344;2022-07-26T12:43:55;24.60;99.90
2825;DHT22;1420;51.324;12.344;2022-07-26T12:46:22;25.00;99.90
2825;DHT22;1420;51.324;12.344;2022-07-26T12:48:49;24.80;99.90
2825;DHT22;1420;51.324;12.344;2022-07-26T12:51:17;24.30;99.90
2825;DHT22;1420;51.324;12.344;2022-07-26T12:53:45;24.40;99.90
2825;DHT22;1420;51.324;12.344;2022-07-26T12:56:13;24.10;99.90
2825;DHT22;1420;51.324;12.344;2022-07-26T12:58:41;24.20;99.90
2825;DHT22;1420;51.324;12.344;2022-07-26T13:01:09;24.30;99.90
2825;DHT22;1420;51.324;12.344;2022-07-26T13:03:37;24.30;99.90
2825;DHT22;1420;51.324;12.344;2022-07-26T13:06:05;24.40;99.90
2825;DHT22;1420;51.324;12.344;2022-07-26T13:08:33;24.30;99.90
2825;DHT22;1420;51.324;12.344;2022-07-26T13:11:00;24.50;99.90
2825;DHT22;1420;51.324;12.344;2022-07-26T13:13:27;24.50;99.90
2825;DHT22;1420;51.324;12.344;2022-07-26T13:15:54;24.40;99.90
2825;DHT22;1420;51.324;12.344;2022-07-26T13:18:21;24.60;99.90
2825;DHT22;1420;51.324;12.344;2022-07-26T13:20:49;25.00;99.90
2825;DHT22;1420;51.324;12.344;2022-07-26T13:23:16;25.30;99.90
2825;DHT22;1420;51.324;12.344;2022-07-26T13:25:43;25.60;99.90
2825;DHT22;1420;51.324;12.344;2022-07-26T13:28:10;26.00;99.90
2825;DHT22;1420;51.324;12.344;2022-07-26T13:30:37;25.80;99.90
2825;DHT22;1420;51.324;12.344;2022-07-26T13:33:05;25.40;99.90
2825;DHT22;1420;51.324;12.344;2022-07-26T13:35:32;24.80;99.90
2825;DHT22;1420;51.324;12.344;2022-07-26T13:37:59;24.00;99.90
2825;DHT22;1420;51.324;12.344;2022-07-26T13:40:26;23.30;99.90
2825;DHT22;1420;51.324;12.344;2022-07-26T13:42:54;22.60;99.90
2825;DHT22;1420;51.324;12.344;2022-07-26T13:45:22;22.00;99.90
2825;DHT22;1420;51.324;12.344;2022-07-26T13:47:49;21.90;99.90
2825;DHT22;1420;51.324;12.344;2022-07-26T13:50:17;21.90;99.90
2825;DHT22;1420;51.324;12.344;2022-07-26T13:52:44;21.90;99.90
2825;DHT22;1420;51.324;12.344;2022-07-26T13:55:11;21.60;99.90
2825;DHT22;1420;51.324;12.344;2022-07-26T13:57:38;21.70;99.90
2825;DHT22;1420;51.324;12.344;2022-07-26T14:00:06;21.50;99.90
2825;DHT22;1420;51.324;12.344;2022-07-26T14:02:33;21.50;99.90
2825;DHT22;1420;51.324;12.344;2022-07-26T14:05:01;21.20;99.90
2825;DHT22;1420;51.324;12.344;2022-07-26T14:07:29;21.20;99.90
2825;DHT22;1420;51.324;12.344;2022-07-26T14:09:57;21.30;99.90
2825;DHT22;1420;51.324;12.344;2022-07-26T14:12:25;21.10;99.90
2825;DHT22;1420;51.324;12.344;2022-07-26T14:14:53;21.30;99.90
2825;DHT22;1420;51.324;12.344;2022-07-26T14:17:21;21.30;99.90
2825;DHT22;1420;51.324;12.344;2022-07-26T14:19:49;21.50;99.90
2825;DHT22;1420;51.324;12.344;2022-07-26T14:22:16;21.40;99.90
2825;DHT22;1420;51.324;12.344;2022-07-26T14:24:44;21.60;99.90
2825;DHT22;1420;51.324;12.344;2022-07-26T14:27:11;21.60;99.90
2825;DHT22;1420;51.324;12.344;2022-07-26T14:29:38;21.70;99.90
2825;DHT22;1420;51.324;12.344;2022-07-26T14:32:05;22.00;99.90
2825;DHT22;1420;51.324;12.344;2022-07-26T14:34:32;22.00;99.90
2825;DHT22;1420;51.324;12.344;2022-07-26T14:37:01;22.10;99.90
2825;DHT22;1420;51.324;12.344;2022-07-26T14:39:28;22.20;99.90
2825;DHT22;1420;51.324;12.344;2022-07-26T14:41:55;22.30;99.90
2825;DHT22;1420;51.324;12.344;2022-07-26T14:44:22;22.20;99.90
2825;DHT22;1420;51.324;12.344;2022-07-26T14:46:49;22.30;99.90
2825;DHT22;1420;51.324;12.344;2022-07-26T14:49:17;22.50;99.90
2825;DHT22;1420;51.324;12.344;2022-07-26T14:51:44;22.40;99.90
2825;DHT22;1420;51.324;12.344;2022-07-26T14:54:12;22.30;99.90
2825;DHT22;1420;51.324;12.344;2022-07-26T14:56:39;22.50;99.90
2825;DHT22;1420;51.324;12.344;2022-07-26T14:59:07;22.50;99.90
2825;DHT22;1420;51.324;12.344;2022-07-26T15:01:35;22.50;99.90
2825;DHT22;1420;51.324;12.344;2022-07-26T15:04:03;22.30;99.90
2825;DHT22;1420;51.324;12.344;2022-07-26T15:06:30;22.30;99.90
2825;DHT22;1420;51.324;12.344;2022-07-26T15:08:57;22.40;99.90
2825;DHT22;1420;51.324;12.344;2022-07-26T15:11:25;22.40;99.90
2825;DHT22;1420;51.324;12.344;2022-07-26T15:13:52;22.60;99.90
2825;DHT22;1420;51.324;12.344;2022-07-26T15:16:19;22.70;99.90
2825;DHT22;1420;51.324;12.344;2022-07-26T15:18:46;22.60;99.90
2825;DHT22;1420;51.324;12.344;2022-07-26T15:21:14;22.40;99.90
2825;DHT22;1420;51.324;12.344;2022-07-26T15:23:42;22.60;99.90
2825;DHT22;1420;51.324;12.344;2022-07-26T15:26:09;22.70;99.90
2825;DHT22;1420;51.324;12.344;2022-07-26T15:28:37;22.70;99.90
2825;DHT22;1420;51.324;12.344;2022-07-26T15:31:04;22.40;99.90
2825;DHT22;1420;51.324;12.344;2022-07-26T15:33:31;22.50;99.90
2825;DHT22;1420;51.324;12.344;2022-07-26T15:35:58;22.70;99.90
2825;DHT22;1420;51.324;12.344;2022-07-26T15:38:26;22.40;99.90
2825;DHT22;1420;51.324;12.344;2022-07-26T15:40:53;22.40;99.90
2825;DHT22;1420;51.324;12.344;2022-07-26T15:43:21;22.60;99.90
2825;DHT22;1420;51.324;12.344;2022-07-26T15:45:47;22.50;99.90
2825;DHT22;1420;51.324;12.344;2022-07-26T15:48:14;22.50;99.90
2825;DHT22;1420;51.324;12.344;2022-07-26T15:50:42;22.40;99.90
2825;DHT22;1420;51.324;12.344;2022-07-26T15:53:09;22.50;99.90
2825;DHT22;1420;51.324;12.344;2022-07-26T15:55:36;22.50;99.90
2825;DHT22;1420;51.324;12.344;2022-07-26T15:58:04;22.80;99.90